Terminal Aerodrome Forecast
Issued by NWS

Home | Current Version | Previous Version | Text Only | Print | Product List | Glossary On
Versions: 1 2 3 4 5 6 7 8 9 10 11 12 13 14 15 16 17 18 19 20 21 22 23 24 25 26 27 28 29 30
000
FTUS46 KLOX 211700
TAFLAX
TAF
KLAX 211724Z 2118/2224 VRB03KT P6SM FEW020
     FM212000 26010KT P6SM SKC
     FM220400 VRB03KT P6SM SKC
     FM221000 VRB03KT 5SM BR BKN005
     FM221600 26005KT P6SM SKC
     FM222000 26010KT P6SM SKC=

USA.gov is the U.S. government's official web portal to all federal, state and local government web resources and services.